Time;durP1;ratioP1;P1;durP2;ratioP2;P2;SDS_P1;SDS_P2;PMS_P1;PMS_P2;Temp;Humidity;BMP_temperature;BMP_pressure;BME280_temperature;BME280_humidity;BME280_pressure;Samples;Min_cycle;Max_cycle;Signal;HPM_P1;HPM_P2
2023/07/27 00:01:41;;;;;;;4.88;1.98;;;;;;;;;;5009827;28;92781;-83
2023/07/27 00:04:08;;;;;;;4.43;1.75;;;;;;;;;;4997959;28;92823;-83
2023/07/27 00:06:34;;;;;;;3.83;1.83;;;;;;;;;;4993961;28;92411;-83
2023/07/27 00:09:01;;;;;;;4.60;2.00;;;;;;;;;;4995349;28;93228;-83
2023/07/27 00:11:28;;;;;;;5.38;2.00;;;;;;;;;;5010618;28;91628;-83
2023/07/27 00:13:54;;;;;;;4.97;2.10;;;;;;;;;;5001452;28;92736;-83
2023/07/27 00:16:21;;;;;;;3.35;1.70;;;;;;;;;;5005680;28;93249;-83
2023/07/27 00:18:47;;;;;;;6.65;2.10;;;;;;;;;;4997885;28;95255;-83
2023/07/27 00:21:14;;;;;;;5.20;2.05;;;;;;;;;;4998116;28;95804;-83
2023/07/27 00:23:40;;;;;;;4.22;1.90;;;;;;;;;;5006107;28;94191;-83
2023/07/27 00:26:07;;;;;;;3.85;1.70;;;;;;;;;;5010292;28;92490;-83
2023/07/27 00:28:33;;;;;;;4.03;2.03;;;;;;;;;;5010905;28;93964;-83
2023/07/27 00:31:00;;;;;;;3.88;1.80;;;;;;;;;;5003683;28;93462;-83
2023/07/27 00:33:26;;;;;;;4.68;1.80;;;;;;;;;;5010206;28;92363;-83
2023/07/27 00:35:57;;;;;;;4.80;1.92;;;;;;;;;;5022173;28;92402;-83
2023/07/27 00:38:25;;;;;;;4.82;2.00;;;;;;;;;;5000267;28;92627;-83
2023/07/27 00:40:51;;;;;;;3.35;1.77;;;;;;;;;;5000171;28;92822;-83
2023/07/27 00:43:18;;;;;;;4.93;2.00;;;;;;;;;;5010553;28;95453;-83
2023/07/27 00:45:46;;;;;;;4.00;1.85;;;;;;;;;;5012836;28;92371;-83
2023/07/27 00:48:13;;;;;;;3.60;1.77;;;;;;;;;;5010869;28;94080;-83
2023/07/27 00:50:40;;;;;;;4.50;2.08;;;;;;;;;;4992665;28;92523;-84
2023/07/27 00:53:07;;;;;;;3.88;1.83;;;;;;;;;;4986707;28;92699;-83
2023/07/27 00:55:35;;;;;;;4.68;2.03;;;;;;;;;;4993055;28;93063;-84
2023/07/27 00:58:02;;;;;;;4.55;1.80;;;;;;;;;;5010767;28;92472;-83
2023/07/27 01:00:30;;;;;;;;;;;;;;;;;;5009742;28;95763;-83
2023/07/27 01:02:57;;;;;;;4.88;1.80;;;;;;;;;;5000585;28;111924;-83
2023/07/27 01:05:24;;;;;;;4.40;1.90;;;;;;;;;;5003692;28;92508;-84
2023/07/27 01:07:51;;;;;;;4.05;1.80;;;;;;;;;;4985384;28;94888;-84
2023/07/27 01:10:23;;;;;;;4.95;2.00;;;;;;;;;;5021847;28;92369;-83
2023/07/27 01:12:54;;;;;;;4.28;1.85;;;;;;;;;;5021750;28;92891;-83
2023/07/27 01:15:24;;;;;;;4.13;2.03;;;;;;;;;;5017750;28;95855;-84
2023/07/27 01:17:53;;;;;;;4.35;1.80;;;;;;;;;;5016104;28;92902;-84
2023/07/27 01:20:32;;;;;;;4.38;1.90;;;;;;;;;;5027372;28;92326;-83
2023/07/27 01:22:59;;;;;;;4.57;1.98;;;;;;;;;;5001333;28;95111;-84
2023/07/27 01:25:44;;;;;;;4.60;2.03;;;;;;;;;;5021002;28;91663;-84
2023/07/27 01:28:15;;;;;;;4.57;1.92;;;;;;;;;;5031176;28;92641;-83
2023/07/27 01:30:48;;;;;;;4.75;1.92;;;;;;;;;;5024095;28;92603;-83
2023/07/27 01:33:16;;;;;;;5.00;2.20;;;;;;;;;;5013983;28;94781;-83
2023/07/27 01:35:42;;;;;;;;;;;;;;;;;;5028532;28;92220;-84
2023/07/27 01:38:09;;;;;;;5.20;2.13;;;;;;;;;;5027088;28;107333;-84
2023/07/27 01:40:36;;;;;;;4.15;1.88;;;;;;;;;;5017672;28;92853;-84
2023/07/27 01:43:03;;;;;;;3.65;1.80;;;;;;;;;;5021251;28;93279;-84
2023/07/27 01:45:29;;;;;;;5.07;2.45;;;;;;;;;;5004319;28;92486;-84
2023/07/27 01:47:56;;;;;;;4.18;1.90;;;;;;;;;;5011768;28;92875;-84
2023/07/27 01:50:23;;;;;;;4.45;1.90;;;;;;;;;;4997173;28;92215;-84
2023/07/27 01:52:50;;;;;;;3.95;1.65;;;;;;;;;;5011064;28;92799;-84
2023/07/27 01:55:17;;;;;;;4.78;1.90;;;;;;;;;;5002176;28;92899;-84
2023/07/27 01:57:44;;;;;;;3.63;1.90;;;;;;;;;;5003986;28;94923;-84
2023/07/27 02:00:10;;;;;;;;;;;;;;;;;;5006046;28;97546;-82
2023/07/27 02:02:41;;;;;;;4.65;1.73;;;;;;;;;;5017216;28;92860;-84
2023/07/27 02:05:08;;;;;;;4.65;1.95;;;;;;;;;;5013900;28;92975;-83
2023/07/27 02:07:36;;;;;;;3.47;1.70;;;;;;;;;;4996004;28;95227;-84
2023/07/27 02:10:02;;;;;;;3.65;1.77;;;;;;;;;;4998484;28;96055;-83
2023/07/27 02:12:41;;;;;;;3.75;1.70;;;;;;;;;;5007869;28;92522;-84
2023/07/27 02:15:10;;;;;;;3.53;1.83;;;;;;;;;;5007515;28;92659;-84
2023/07/27 02:17:41;;;;;;;3.97;2.05;;;;;;;;;;5005107;28;92410;-84
2023/07/27 02:20:13;;;;;;;3.97;1.80;;;;;;;;;;4993220;28;93784;-83
2023/07/27 02:22:43;;;;;;;4.22;1.80;;;;;;;;;;5009698;28;95464;-84
2023/07/27 02:25:10;;;;;;;4.03;1.80;;;;;;;;;;5005557;28;92451;-83
2023/07/27 02:27:36;;;;;;;4.60;1.90;;;;;;;;;;4980343;28;95493;-83
2023/07/27 02:30:03;;;;;;;3.60;1.70;;;;;;;;;;5009859;28;94744;-84
2023/07/27 02:32:30;;;;;;;4.78;2.00;;;;;;;;;;5009120;28;92959;-84
2023/07/27 02:34:57;;;;;;;3.72;1.60;;;;;;;;;;5002050;28;93004;-84
2023/07/27 02:37:24;;;;;;;4.60;1.88;;;;;;;;;;5013211;28;95003;-84
2023/07/27 02:39:50;;;;;;;3.65;1.80;;;;;;;;;;5002778;28;95598;-83
2023/07/27 02:42:17;;;;;;;5.53;1.83;;;;;;;;;;5013032;28;92729;-83
2023/07/27 02:44:43;;;;;;;3.92;1.65;;;;;;;;;;5021874;28;92373;-84
2023/07/27 02:47:10;;;;;;;3.63;1.73;;;;;;;;;;5010749;28;95099;-84
2023/07/27 02:49:37;;;;;;;4.22;1.80;;;;;;;;;;5012846;28;94375;-84
2023/07/27 02:52:04;;;;;;;4.18;1.73;;;;;;;;;;5009009;28;92553;-84
2023/07/27 02:54:30;;;;;;;4.20;1.92;;;;;;;;;;5007792;28;93837;-84
2023/07/27 02:56:57;;;;;;;3.85;1.80;;;;;;;;;;4985716;28;95345;-84
2023/07/27 02:59:31;;;;;;;3.67;1.70;;;;;;;;;;5010873;28;92588;-84
2023/07/27 03:01:57;;;;;;;3.70;1.73;;;;;;;;;;5005065;28;95843;-84
2023/07/27 03:04:29;;;;;;;4.35;2.00;;;;;;;;;;4999485;28;91722;-84
2023/07/27 03:06:56;;;;;;;4.38;1.67;;;;;;;;;;5008512;28;94693;-84
2023/07/27 03:09:22;;;;;;;3.47;1.65;;;;;;;;;;4998855;28;95874;-84
2023/07/27 03:11:49;;;;;;;4.15;1.73;;;;;;;;;;4971845;28;94938;-84
2023/07/27 03:14:16;;;;;;;3.30;1.60;;;;;;;;;;5009996;28;94012;-84
2023/07/27 03:16:42;;;;;;;4.68;1.98;;;;;;;;;;5005702;28;95566;-84
2023/07/27 03:19:10;;;;;;;4.65;1.70;;;;;;;;;;5007391;28;92412;-84
2023/07/27 03:21:37;;;;;;;3.60;1.65;;;;;;;;;;5010934;28;95761;-84
2023/07/27 03:24:03;;;;;;;3.45;1.50;;;;;;;;;;5007515;28;92460;-83
2023/07/27 03:26:30;;;;;;;3.08;1.40;;;;;;;;;;4995243;28;93930;-83
2023/07/27 03:28:57;;;;;;;4.55;1.73;;;;;;;;;;5010381;28;92308;-84
2023/07/27 03:31:24;;;;;;;3.47;1.70;;;;;;;;;;4992854;28;93323;-83
2023/07/27 03:33:52;;;;;;;4.63;1.92;;;;;;;;;;4993581;28;95453;-83
2023/07/27 03:36:19;;;;;;;2.58;1.42;;;;;;;;;;5004270;28;96969;-83
2023/07/27 03:38:46;;;;;;;3.85;1.70;;;;;;;;;;4997461;28;92414;-84
2023/07/27 03:41:13;;;;;;;4.72;1.98;;;;;;;;;;4999295;28;93132;-83
2023/07/27 03:43:40;;;;;;;4.43;1.63;;;;;;;;;;5011177;28;95511;-83
2023/07/27 03:46:06;;;;;;;4.07;1.52;;;;;;;;;;4997162;28;92680;-83
2023/07/27 03:48:33;;;;;;;4.47;1.67;;;;;;;;;;4995113;28;93138;-84
2023/07/27 03:51:00;;;;;;;3.97;1.40;;;;;;;;;;5003588;28;92756;-83
2023/07/27 03:53:27;;;;;;;3.60;1.75;;;;;;;;;;4992094;28;92443;-84
2023/07/27 03:55:54;;;;;;;4.35;1.55;;;;;;;;;;5005931;28;93214;-84
2023/07/27 03:58:21;;;;;;;3.28;1.60;;;;;;;;;;4994050;28;92525;-83
2023/07/27 04:00:47;;;;;;;3.28;1.60;;;;;;;;;;5008565;28;94748;-83
2023/07/27 04:03:14;;;;;;;3.08;1.50;;;;;;;;;;4991835;28;94321;-84
2023/07/27 04:05:41;;;;;;;4.13;1.73;;;;;;;;;;4995588;28;92425;-83
2023/07/27 04:08:10;;;;;;;3.38;1.70;;;;;;;;;;5000100;28;96341;-83
2023/07/27 04:10:37;;;;;;;3.75;1.70;;;;;;;;;;5008699;28;92490;-84
2023/07/27 04:13:03;;;;;;;2.92;1.60;;;;;;;;;;5004066;28;93010;-83
2023/07/27 04:15:30;;;;;;;3.92;1.70;;;;;;;;;;5010520;28;94123;-83
2023/07/27 04:17:56;;;;;;;4.03;1.50;;;;;;;;;;5008647;28;91745;-83
2023/07/27 04:20:23;;;;;;;3.67;1.75;;;;;;;;;;4997679;28;94543;-84
2023/07/27 04:22:52;;;;;;;3.83;1.70;;;;;;;;;;5012124;28;93047;-83
2023/07/27 04:25:18;;;;;;;3.78;1.58;;;;;;;;;;5014724;28;94784;-83
2023/07/27 04:27:45;;;;;;;4.13;1.60;;;;;;;;;;5012191;28;93124;-84
2023/07/27 04:30:11;;;;;;;2.92;1.58;;;;;;;;;;5010486;28;92551;-83
2023/07/27 04:32:38;;;;;;;3.55;1.60;;;;;;;;;;5011121;28;93472;-83
2023/07/27 04:35:06;;;;;;;3.60;1.70;;;;;;;;;;4997065;28;94876;-83
2023/07/27 04:37:32;;;;;;;3.95;1.80;;;;;;;;;;4994667;28;92862;-83
2023/07/27 04:40:01;;;;;;;4.32;1.92;;;;;;;;;;5012735;28;95638;-83
2023/07/27 04:42:28;;;;;;;5.07;1.80;;;;;;;;;;5008196;28;91730;-83
2023/07/27 04:44:54;;;;;;;3.05;1.50;;;;;;;;;;5020446;28;92457;-83
2023/07/27 04:47:22;;;;;;;3.63;1.70;;;;;;;;;;5009981;28;92989;-83
2023/07/27 04:49:49;;;;;;;3.58;1.60;;;;;;;;;;5008865;28;94784;-83
2023/07/27 04:52:15;;;;;;;3.35;1.60;;;;;;;;;;5025239;28;95248;-84
2023/07/27 04:54:42;;;;;;;3.83;1.63;;;;;;;;;;5013726;28;95926;-82
2023/07/27 04:57:08;;;;;;;4.20;1.67;;;;;;;;;;5004199;28;92420;-83
2023/07/27 04:59:35;;;;;;;3.47;1.65;;;;;;;;;;5014137;28;92962;-83
2023/07/27 05:02:02;;;;;;;3.53;1.50;;;;;;;;;;5002687;28;94166;-82
2023/07/27 05:04:28;;;;;;;3.33;1.67;;;;;;;;;;5003217;28;92403;-83
2023/07/27 05:06:55;;;;;;;3.58;1.67;;;;;;;;;;5011017;28;92964;-83
2023/07/27 05:09:21;;;;;;;3.38;1.80;;;;;;;;;;5014757;28;93259;-83
2023/07/27 05:11:48;;;;;;;3.20;1.60;;;;;;;;;;5002188;28;93058;-83
2023/07/27 05:14:14;;;;;;;3.28;1.70;;;;;;;;;;5010900;28;95465;-83
2023/07/27 05:16:41;;;;;;;3.63;1.77;;;;;;;;;;5014194;28;92516;-82
2023/07/27 05:19:08;;;;;;;3.80;1.80;;;;;;;;;;5010976;28;92398;-83
2023/07/27 05:21:34;;;;;;;4.32;1.80;;;;;;;;;;5010132;28;93069;-83
2023/07/27 05:24:01;;;;;;;3.92;1.70;;;;;;;;;;5011386;28;92372;-83
2023/07/27 05:26:27;;;;;;;3.67;1.50;;;;;;;;;;5009017;28;93034;-83
2023/07/27 05:28:54;;;;;;;3.33;1.67;;;;;;;;;;4992901;28;96045;-83
2023/07/27 05:31:21;;;;;;;5.38;1.88;;;;;;;;;;4997524;28;91935;-83
2023/07/27 05:33:48;;;;;;;3.03;1.52;;;;;;;;;;5001027;28;93048;-83
2023/07/27 05:36:14;;;;;;;3.78;1.58;;;;;;;;;;5009178;28;92518;-83
2023/07/27 05:38:41;;;;;;;2.67;1.52;;;;;;;;;;4987887;28;94897;-83
2023/07/27 05:41:08;;;;;;;;;;;;;;;;;;4995503;28;93528;-82
2023/07/27 05:43:34;;;;;;;4.03;1.80;;;;;;;;;;5007490;28;104796;-82
2023/07/27 05:46:01;;;;;;;3.22;1.60;;;;;;;;;;5003238;28;93061;-81
2023/07/27 05:48:27;;;;;;;3.30;1.60;;;;;;;;;;5011235;28;93166;-82
2023/07/27 05:50:54;;;;;;;3.15;1.60;;;;;;;;;;5006748;28;92525;-82
2023/07/27 05:53:20;;;;;;;3.50;1.58;;;;;;;;;;5010780;28;92779;-82
2023/07/27 05:55:47;;;;;;;3.28;1.60;;;;;;;;;;5007574;28;91629;-82
2023/07/27 05:58:14;;;;;;;3.65;1.58;;;;;;;;;;5001912;28;92434;-82
2023/07/27 06:00:59;;;;;;;2.92;1.60;;;;;;;;;;5010750;28;92393;-81
2023/07/27 06:03:26;;;;;;;4.22;1.70;;;;;;;;;;5009031;28;95120;-81
2023/07/27 06:05:52;;;;;;;3.22;1.58;;;;;;;;;;5010533;28;94774;-81
2023/07/27 06:08:19;;;;;;;3.45;1.70;;;;;;;;;;5009851;28;94196;-82
2023/07/27 06:10:45;;;;;;;3.85;1.67;;;;;;;;;;4980602;28;92497;-81
2023/07/27 06:13:12;;;;;;;3.65;1.80;;;;;;;;;;5002948;28;92574;-82
2023/07/27 06:15:45;;;;;;;3.88;1.70;;;;;;;;;;5012657;28;93968;-82
2023/07/27 06:18:11;;;;;;;3.40;1.60;;;;;;;;;;5008193;28;92359;-82
2023/07/27 06:20:38;;;;;;;2.90;1.40;;;;;;;;;;5011346;28;93179;-82
2023/07/27 06:23:04;;;;;;;3.70;1.80;;;;;;;;;;5010628;28;92353;-82
2023/07/27 06:25:31;;;;;;;3.35;1.48;;;;;;;;;;4999003;28;93320;-82
2023/07/27 06:27:57;;;;;;;3.25;1.52;;;;;;;;;;4992443;28;96023;-82
2023/07/27 06:30:24;;;;;;;3.10;1.52;;;;;;;;;;5009036;28;92648;-82
2023/07/27 06:32:50;;;;;;;3.35;1.70;;;;;;;;;;4999353;28;92769;-82
2023/07/27 06:35:17;;;;;;;3.25;1.80;;;;;;;;;;5002942;28;96176;-82
2023/07/27 06:37:43;;;;;;;4.18;1.67;;;;;;;;;;4994218;28;94711;-82
2023/07/27 06:40:11;;;;;;;3.58;1.70;;;;;;;;;;5002101;28;93013;-82
2023/07/27 06:42:39;;;;;;;2.80;1.52;;;;;;;;;;4993602;28;92661;-82
2023/07/27 06:45:07;;;;;;;2.72;1.40;;;;;;;;;;5009244;28;94074;-81
2023/07/27 06:47:34;;;;;;;3.65;1.60;;;;;;;;;;4997086;28;93658;-82
2023/07/27 06:50:01;;;;;;;2.40;1.40;;;;;;;;;;5007827;28;92590;-82
2023/07/27 06:52:27;;;;;;;3.03;1.50;;;;;;;;;;5009354;28;94815;-82
2023/07/27 06:54:54;;;;;;;3.35;1.52;;;;;;;;;;4999937;28;96158;-82
2023/07/27 06:57:24;;;;;;;4.13;1.58;;;;;;;;;;5012654;28;92450;-82
2023/07/27 06:59:50;;;;;;;2.30;1.40;;;;;;;;;;5025669;28;93066;-82
2023/07/27 07:02:18;;;;;;;3.55;1.70;;;;;;;;;;5009376;28;93162;-82
2023/07/27 07:04:45;;;;;;;3.17;1.50;;;;;;;;;;5009736;28;93174;-82
2023/07/27 07:07:13;;;;;;;2.95;1.50;;;;;;;;;;5007993;28;94125;-82
2023/07/27 07:09:39;;;;;;;2.40;1.40;;;;;;;;;;5004279;28;91664;-82
2023/07/27 07:12:06;;;;;;;3.22;1.50;;;;;;;;;;5002814;28;92423;-82
2023/07/27 07:14:33;;;;;;;3.50;1.60;;;;;;;;;;5007540;28;94157;-82
2023/07/27 07:17:00;;;;;;;2.72;1.50;;;;;;;;;;5002513;28;95318;-82
2023/07/27 07:19:27;;;;;;;2.67;1.40;;;;;;;;;;5004708;28;94117;-82
2023/07/27 07:21:53;;;;;;;3.00;1.30;;;;;;;;;;4999292;28;92961;-82
2023/07/27 07:24:20;;;;;;;2.15;1.30;;;;;;;;;;5009994;28;92380;-82
2023/07/27 07:26:46;;;;;;;3.25;1.67;;;;;;;;;;5009307;28;93066;-82
2023/07/27 07:29:13;;;;;;;2.67;1.58;;;;;;;;;;5007930;28;93168;-82
2023/07/27 07:31:39;;;;;;;2.92;1.40;;;;;;;;;;5003419;28;92726;-82
2023/07/27 07:34:06;;;;;;;2.42;1.30;;;;;;;;;;4995038;28;92593;-82
2023/07/27 07:36:32;;;;;;;2.88;1.42;;;;;;;;;;5002125;28;92886;-82
2023/07/27 07:39:00;;;;;;;2.92;1.40;;;;;;;;;;5009758;28;92681;-82
2023/07/27 07:41:26;;;;;;;1.92;1.27;;;;;;;;;;4993127;28;95532;-82
2023/07/27 07:43:53;;;;;;;2.60;1.35;;;;;;;;;;5008045;28;95658;-81
2023/07/27 07:46:19;;;;;;;2.47;1.40;;;;;;;;;;5008084;28;92894;-82
2023/07/27 07:48:48;;;;;;;2.40;1.30;;;;;;;;;;5013244;28;92476;-82
2023/07/27 07:51:14;;;;;;;2.03;1.35;;;;;;;;;;5005788;28;92810;-82
2023/07/27 07:53:41;;;;;;;2.70;1.38;;;;;;;;;;5012704;28;92762;-82
2023/07/27 07:56:12;;;;;;;2.33;1.23;;;;;;;;;;5000709;28;92392;-82
2023/07/27 07:58:38;;;;;;;2.58;1.23;;;;;;;;;;5011292;28;93170;-82
2023/07/27 08:01:06;;;;;;;1.55;1.10;;;;;;;;;;5012227;28;93482;-82
2023/07/27 08:03:32;;;;;;;2.80;1.48;;;;;;;;;;5016287;28;92509;-82
2023/07/27 08:05:59;;;;;;;3.22;1.40;;;;;;;;;;4992431;28;97947;-82
2023/07/27 08:08:27;;;;;;;2.30;1.20;;;;;;;;;;5005894;28;92653;-82
2023/07/27 08:10:59;;;;;;;1.73;1.20;;;;;;;;;;5009017;28;92992;-82
2023/07/27 08:13:26;;;;;;;2.83;1.27;;;;;;;;;;4997723;28;94040;-82
2023/07/27 08:15:53;;;;;;;2.08;1.10;;;;;;;;;;5006016;28;92419;-83
2023/07/27 08:18:19;;;;;;;1.50;1.05;;;;;;;;;;4998903;28;93204;-82
2023/07/27 08:20:56;;;;;;;3.08;1.30;;;;;;;;;;5010474;28;92495;-82
2023/07/27 08:23:22;;;;;;;2.03;1.10;;;;;;;;;;5011222;28;91750;-82
2023/07/27 08:25:49;;;;;;;1.77;1.20;;;;;;;;;;5001165;28;92467;-82
2023/07/27 08:28:15;;;;;;;1.73;1.10;;;;;;;;;;5011007;28;93046;-82
2023/07/27 08:30:42;;;;;;;2.08;1.20;;;;;;;;;;5010921;28;95371;-82
2023/07/27 08:33:08;;;;;;;3.17;1.30;;;;;;;;;;5004868;28;92473;-82
2023/07/27 08:35:35;;;;;;;1.95;1.20;;;;;;;;;;5004082;28;92606;-81
2023/07/27 08:38:02;;;;;;;1.77;1.10;;;;;;;;;;5013858;28;92816;-83
2023/07/27 08:40:29;;;;;;;1.52;1.02;;;;;;;;;;5004772;28;93551;-83
2023/07/27 08:42:56;;;;;;;1.48;1.05;;;;;;;;;;5014004;28;92465;-83
2023/07/27 08:45:23;;;;;;;2.10;1.13;;;;;;;;;;5023568;28;94147;-83
2023/07/27 08:47:50;;;;;;;1.85;1.23;;;;;;;;;;5002890;28;91707;-82
2023/07/27 08:50:16;;;;;;;2.45;1.05;;;;;;;;;;5019719;28;92972;-84
2023/07/27 08:52:43;;;;;;;1.95;1.13;;;;;;;;;;5016455;28;93053;-82
2023/07/27 08:55:10;;;;;;;1.30;0.90;;;;;;;;;;5018304;28;94787;-85
2023/07/27 08:57:37;;;;;;;1.80;1.10;;;;;;;;;;5012051;28;94521;-83
2023/07/27 09:00:04;;;;;;;2.10;1.10;;;;;;;;;;5025201;28;92286;-82
2023/07/27 09:02:30;;;;;;;1.90;1.23;;;;;;;;;;5005764;28;92336;-81
2023/07/27 09:04:57;;;;;;;1.88;1.00;;;;;;;;;;5023186;28;93129;-81
2023/07/27 09:07:24;;;;;;;2.15;1.20;;;;;;;;;;5022269;28;95013;-82
2023/07/27 09:09:52;;;;;;;1.65;1.00;;;;;;;;;;5020922;28;92781;-82
2023/07/27 09:12:21;;;;;;;1.60;1.10;;;;;;;;;;5021647;28;92636;-82
2023/07/27 09:14:48;;;;;;;1.20;1.00;;;;;;;;;;5013512;28;92872;-82
2023/07/27 09:17:14;;;;;;;1.45;1.00;;;;;;;;;;5021631;28;92924;-82
2023/07/27 09:19:42;;;;;;;2.10;0.98;;;;;;;;;;5027394;28;96138;-83
2023/07/27 09:22:09;;;;;;;1.45;1.00;;;;;;;;;;5031139;28;92332;-82
2023/07/27 09:24:36;;;;;;;1.55;1.05;;;;;;;;;;5036168;27;91927;-82
2023/07/27 09:27:09;;;;;;;1.35;1.00;;;;;;;;;;5035482;27;92062;-83
2023/07/27 09:29:35;;;;;;;1.67;1.00;;;;;;;;;;5024525;28;91507;-81
2023/07/27 09:32:02;;;;;;;1.95;1.15;;;;;;;;;;5020747;28;92433;-81
2023/07/27 09:34:29;;;;;;;2.05;1.10;;;;;;;;;;5019380;27;92446;-81
2023/07/27 09:36:56;;;;;;;1.38;0.90;;;;;;;;;;5029239;28;91576;-81
2023/07/27 09:39:26;;;;;;;1.08;0.95;;;;;;;;;;5001280;28;92893;-82
2023/07/27 09:41:53;;;;;;;1.25;0.70;;;;;;;;;;5010441;28;92735;-81
2023/07/27 09:44:24;;;;;;;1.63;1.00;;;;;;;;;;4994386;28;95239;-82
2023/07/27 09:46:50;;;;;;;1.27;0.90;;;;;;;;;;5009664;28;94645;-81
2023/07/27 09:49:17;;;;;;;1.83;1.10;;;;;;;;;;5000667;28;92577;-82
2023/07/27 09:51:44;;;;;;;1.33;0.90;;;;;;;;;;4999084;28;92900;-82
2023/07/27 09:54:11;;;;;;;2.15;1.00;;;;;;;;;;5009688;28;92529;-82
2023/07/27 09:56:38;;;;;;;1.00;0.90;;;;;;;;;;4996318;28;92839;-82
2023/07/27 09:59:05;;;;;;;2.00;1.10;;;;;;;;;;4989961;28;95644;-82
2023/07/27 10:01:32;;;;;;;1.00;0.90;;;;;;;;;;5004845;28;91980;-81
2023/07/27 10:03:59;;;;;;;1.35;1.05;;;;;;;;;;4995752;28;92571;-82
2023/07/27 10:06:26;;;;;;;0.98;0.90;;;;;;;;;;5010126;28;93901;-82
2023/07/27 10:08:54;;;;;;;1.48;1.00;;;;;;;;;;5006551;28;94877;-82
2023/07/27 10:11:20;;;;;;;;;;;;;;;;;;4997535;28;95125;-82
2023/07/27 10:13:47;;;;;;;1.92;1.10;;;;;;;;;;5010668;28;105897;-82
2023/07/27 10:16:16;;;;;;;2.28;1.20;;;;;;;;;;5010863;28;93508;-82
2023/07/27 10:18:44;;;;;;;2.38;0.90;;;;;;;;;;5007875;28;92914;-82
2023/07/27 10:21:20;;;;;;;1.33;1.08;;;;;;;;;;4747882;27;10001409;-79
2023/07/27 10:23:55;;;;;;;1.42;0.90;;;;;;;;;;4457095;28;10094001;-83
2023/07/27 10:26:41;;;;;;;1.45;1.00;;;;;;;;;;4933455;28;93400;-83
2023/07/27 10:29:14;;;;;;;1.77;1.02;;;;;;;;;;4944479;28;92433;-84
2023/07/27 10:31:41;;;;;;;1.58;1.00;;;;;;;;;;4947180;28;92474;-83
2023/07/27 10:34:08;;;;;;;1.67;1.10;;;;;;;;;;4935155;28;95556;-83
2023/07/27 10:36:58;;;;;;;1.42;0.80;;;;;;;;;;4925692;28;95746;-83
2023/07/27 10:39:26;;;;;;;1.75;1.02;;;;;;;;;;4931470;28;92369;-83
2023/07/27 10:42:01;;;;;;;1.50;1.00;;;;;;;;;;4942299;28;92843;-83
2023/07/27 10:44:44;;;;;;;1.40;1.08;;;;;;;;;;4949377;28;96114;-83
2023/07/27 10:47:37;;;;;;;1.35;0.98;;;;;;;;;;4942507;28;92685;-83
2023/07/27 10:50:04;;;;;;;1.88;1.10;;;;;;;;;;4944652;28;93909;-83
2023/07/27 10:52:31;;;;;;;1.77;1.08;;;;;;;;;;4940724;28;92613;-82
2023/07/27 10:54:59;;;;;;;1.52;1.00;;;;;;;;;;4947201;28;92433;-82
2023/07/27 10:57:27;;;;;;;1.35;1.10;;;;;;;;;;4935247;28;92927;-83
2023/07/27 10:59:56;;;;;;;2.17;0.90;;;;;;;;;;4944645;28;94847;-82
2023/07/27 11:02:28;;;;;;;1.25;1.00;;;;;;;;;;4950124;28;95636;-83
2023/07/27 11:04:56;;;;;;;1.38;0.77;;;;;;;;;;4951919;28;92830;-83
2023/07/27 11:07:23;;;;;;;;;;;;;;;;;;4950919;28;92373;-83
2023/07/27 11:09:50;;;;;;;0.98;0.88;;;;;;;;;;4958898;28;93192;-82
2023/07/27 11:12:17;;;;;;;1.52;1.00;;;;;;;;;;4946847;28;93120;-80
2023/07/27 11:14:43;;;;;;;1.55;0.90;;;;;;;;;;4941819;28;93920;-78
2023/07/27 11:17:10;;;;;;;1.00;0.90;;;;;;;;;;4947905;28;92774;-78
2023/07/27 11:19:38;;;;;;;1.50;0.90;;;;;;;;;;4952693;28;94643;-78
2023/07/27 11:22:04;;;;;;;0.82;0.80;;;;;;;;;;4935884;28;92753;-78
2023/07/27 11:24:33;;;;;;;1.08;0.80;;;;;;;;;;4944372;28;98053;-79
2023/07/27 11:26:59;;;;;;;1.10;0.90;;;;;;;;;;4950805;28;92993;-80
2023/07/27 11:29:27;;;;;;;0.95;0.90;;;;;;;;;;4941605;28;93014;-79
2023/07/27 11:31:56;;;;;;;1.25;0.90;;;;;;;;;;4950570;28;93123;-78
2023/07/27 11:34:23;;;;;;;1.42;1.05;;;;;;;;;;4940533;28;92766;-79
2023/07/27 11:36:51;;;;;;;1.20;0.90;;;;;;;;;;4930255;28;92885;-79
2023/07/27 11:39:18;;;;;;;1.42;0.88;;;;;;;;;;4949726;28;93744;-79
2023/07/27 11:41:44;;;;;;;1.17;0.90;;;;;;;;;;4936321;28;91724;-79
2023/07/27 11:44:15;;;;;;;1.35;0.82;;;;;;;;;;4942333;28;92963;-79
2023/07/27 11:46:46;;;;;;;1.17;1.00;;;;;;;;;;4950093;28;92509;-79
2023/07/27 11:49:16;;;;;;;0.75;0.70;;;;;;;;;;4943430;28;95650;-79
2023/07/27 11:51:46;;;;;;;1.27;0.77;;;;;;;;;;4947944;28;93534;-79
2023/07/27 11:54:28;;;;;;;1.02;0.80;;;;;;;;;;4965374;28;92414;-80
2023/07/27 11:56:55;;;;;;;1.70;0.80;;;;;;;;;;4945389;28;92619;-80
2023/07/27 11:59:22;;;;;;;0.85;0.80;;;;;;;;;;4949972;28;93027;-79
2023/07/27 12:01:50;;;;;;;0.65;0.60;;;;;;;;;;4949629;28;92450;-79
2023/07/27 12:04:17;;;;;;;0.70;0.70;;;;;;;;;;4947469;28;93978;-79
2023/07/27 12:06:45;;;;;;;0.80;0.70;;;;;;;;;;4950165;28;91726;-79
2023/07/27 12:09:11;;;;;;;0.68;0.60;;;;;;;;;;4950857;28;92935;-79
2023/07/27 12:11:38;;;;;;;1.25;0.70;;;;;;;;;;4941824;28;93034;-80
2023/07/27 12:14:07;;;;;;;1.15;0.80;;;;;;;;;;4943484;28;95184;-79
2023/07/27 12:16:34;;;;;;;;;;;;;;;;;;4950897;28;95932;-79
2023/07/27 12:19:03;;;;;;;1.00;0.70;;;;;;;;;;4951258;28;93027;-79
2023/07/27 12:21:30;;;;;;;0.70;0.70;;;;;;;;;;4939548;28;92414;-79
2023/07/27 12:23:58;;;;;;;0.70;0.70;;;;;;;;;;4947405;28;93856;-79
2023/07/27 12:26:28;;;;;;;1.40;0.68;;;;;;;;;;4932163;28;96145;-79
2023/07/27 12:28:55;;;;;;;0.80;0.70;;;;;;;;;;4941975;28;92844;-80
2023/07/27 12:31:41;;;;;;;1.20;0.80;;;;;;;;;;4951565;28;92193;-79
2023/07/27 12:34:11;;;;;;;0.80;0.80;;;;;;;;;;4942677;28;92411;-79
2023/07/27 12:36:41;;;;;;;0.90;0.70;;;;;;;;;;4951948;28;92591;-79
2023/07/27 12:39:08;;;;;;;0.73;0.73;;;;;;;;;;4950593;28;96590;-79
2023/07/27 12:41:34;;;;;;;1.75;0.80;;;;;;;;;;4941588;28;92374;-79
2023/07/27 12:44:02;;;;;;;1.10;0.70;;;;;;;;;;4951679;28;93133;-79
2023/07/27 12:46:28;;;;;;;0.90;0.80;;;;;;;;;;4941172;28;92887;-79
2023/07/27 12:48:55;;;;;;;0.60;0.60;;;;;;;;;;4954898;28;93001;-79
2023/07/27 12:51:22;;;;;;;0.73;0.73;;;;;;;;;;4951357;28;93740;-79
2023/07/27 12:53:48;;;;;;;0.98;0.63;;;;;;;;;;4951537;28;92916;-79
2023/07/27 12:56:15;;;;;;;1.15;0.68;;;;;;;;;;4943553;28;92767;-79
2023/07/27 12:58:41;;;;;;;0.82;0.80;;;;;;;;;;4949400;28;93245;-79
2023/07/27 13:01:08;;;;;;;0.60;0.60;;;;;;;;;;4934402;28;93111;-79
2023/07/27 13:03:36;;;;;;;1.15;0.80;;;;;;;;;;4947521;28;94925;-79
2023/07/27 13:06:04;;;;;;;1.75;0.80;;;;;;;;;;4951621;28;93115;-79
2023/07/27 13:08:30;;;;;;;0.95;0.70;;;;;;;;;;4954563;28;92416;-79
2023/07/27 13:10:57;;;;;;;1.42;0.80;;;;;;;;;;4947919;28;93181;-79
2023/07/27 13:13:23;;;;;;;0.60;0.60;;;;;;;;;;4936772;28;92976;-79
2023/07/27 13:15:50;;;;;;;0.70;0.70;;;;;;;;;;4932905;28;95999;-79
2023/07/27 13:18:16;;;;;;;0.60;0.60;;;;;;;;;;4950104;28;93049;-79
2023/07/27 13:20:43;;;;;;;1.13;0.60;;;;;;;;;;4960053;28;91958;-79
2023/07/27 13:23:09;;;;;;;0.82;0.80;;;;;;;;;;4942433;28;92621;-79
2023/07/27 13:25:37;;;;;;;0.60;0.60;;;;;;;;;;4951362;28;93279;-79
2023/07/27 13:28:03;;;;;;;;;;;;;;;;;;4946228;28;95026;-80
2023/07/27 13:30:30;;;;;;;0.80;0.80;;;;;;;;;;4946674;28;95909;-79
2023/07/27 13:33:00;;;;;;;1.02;0.70;;;;;;;;;;4940617;28;92513;-79
2023/07/27 13:35:26;;;;;;;0.80;0.80;;;;;;;;;;4941504;28;92943;-79
2023/07/27 13:37:53;;;;;;;0.93;0.70;;;;;;;;;;4951530;28;93053;-79
2023/07/27 13:40:20;;;;;;;1.20;0.75;;;;;;;;;;4947260;28;92472;-79
2023/07/27 13:42:47;;;;;;;0.70;0.70;;;;;;;;;;4931299;28;92799;-79
2023/07/27 13:45:13;;;;;;;1.10;0.70;;;;;;;;;;4938603;28;93293;-79
2023/07/27 13:47:40;;;;;;;0.60;0.60;;;;;;;;;;4950906;28;94443;-79
2023/07/27 13:50:23;;;;;;;1.20;0.65;;;;;;;;;;4951304;28;93067;-79
2023/07/27 13:52:49;;;;;;;0.60;0.60;;;;;;;;;;4953021;28;95453;-79
2023/07/27 13:55:17;;;;;;;0.70;0.70;;;;;;;;;;4951493;28;95464;-79
2023/07/27 13:57:44;;;;;;;0.60;0.60;;;;;;;;;;4941924;28;93414;-79
2023/07/27 14:00:11;;;;;;;0.50;0.50;;;;;;;;;;4950582;28;92473;-79
2023/07/27 14:02:40;;;;;;;1.10;0.90;;;;;;;;;;4950572;28;92477;-78
2023/07/27 14:05:07;;;;;;;1.38;0.70;;;;;;;;;;4949027;28;92977;-79
2023/07/27 14:07:33;;;;;;;0.82;0.60;;;;;;;;;;4938995;28;92816;-80
2023/07/27 14:10:00;;;;;;;0.73;0.73;;;;;;;;;;4943127;28;93163;-79
2023/07/27 14:12:26;;;;;;;0.70;0.70;;;;;;;;;;4932116;28;93672;-79
2023/07/27 14:14:53;;;;;;;1.48;0.52;;;;;;;;;;4944843;28;92438;-79
2023/07/27 14:17:19;;;;;;;1.05;0.55;;;;;;;;;;4946084;28;95629;-80
2023/07/27 14:19:48;;;;;;;0.60;0.60;;;;;;;;;;4950948;28;92524;-80
2023/07/27 14:22:15;;;;;;;0.60;0.60;;;;;;;;;;4952650;28;92965;-79
2023/07/27 14:24:41;;;;;;;0.77;0.70;;;;;;;;;;4940691;28;93168;-79
2023/07/27 14:27:08;;;;;;;1.48;0.70;;;;;;;;;;4941927;28;92871;-79
2023/07/27 14:29:34;;;;;;;1.58;0.80;;;;;;;;;;4950258;28;93086;-80
2023/07/27 14:32:01;;;;;;;0.95;0.70;;;;;;;;;;4943531;28;93239;-79
2023/07/27 14:34:27;;;;;;;0.82;0.73;;;;;;;;;;4938301;28;92025;-80
2023/07/27 14:36:54;;;;;;;1.27;0.73;;;;;;;;;;4967758;28;93111;-79
2023/07/27 14:39:23;;;;;;;0.93;0.77;;;;;;;;;;4934472;28;92660;-79
2023/07/27 14:42:10;;;;;;;1.77;0.75;;;;;;;;;;4936650;28;95593;-80
2023/07/27 14:44:36;;;;;;;0.80;0.80;;;;;;;;;;4949828;28;93205;-79
2023/07/27 14:47:03;;;;;;;1.42;0.70;;;;;;;;;;4937143;28;92574;-79
2023/07/27 14:49:29;;;;;;;1.50;0.90;;;;;;;;;;4950300;28;92793;-78